Adventuress — WCX8691 — position and weather

sailwx.info

Track history (hours):
 
Tides and Currents Weather Stations Pressure Air Temp Water Temp Dewpoint Dewpoint Depression Visibility Wind Speed Wind Dir Waves Ship Positions

Adventuress (United States)

Ship's website: http://www.soundexp.org/

Owner: SOUND EXPERIENCE, PORT TOWNSEND, WA. More information available from US FCC via Universal Licensing System and Coast Guard Vessel Documentation Center.

Last reported at 2017-Jul-26 01:13 UTC. Time now 2017-Jul-28 06:33 UTC.
Position N 48°34' W 122°59'.

Type: Passenger vessel. MMSI: 367323180.

Date/timePositionNaut miles runAvg speedWind from/ knotsBaromVisibWave heightAir tempDewpointWater temp
2017-Jul-26 01:13N 48°34' W 122°59'1 2.5
2017-Jul-26 01:00N 48°34' W 122°59'1 2.3
2017-Jul-26 00:28N 48°33' W 123°00'0 0.1
2017-Jul-25 21:12N 48°32' W 123°01'0 0.6
2017-Jul-25 20:55N 48°32' W 123°01'0 0.0
2017-Jul-25 20:30N 48°32' W 123°01'1 2.7
2017-Jul-25 20:00N 48°33' W 122°59'  
2017-Jul-22 22:19N 48°32' W 122°34'1 2.2
2017-Jul-22 22:00N 48°31' W 122°34'1 2.7
2017-Jul-22 21:30N 48°31' W 122°36'0 0.7
2017-Jul-22 20:59N 48°31' W 122°36'0 0.0
2017-Jul-22 20:29N 48°31' W 122°36'0 0.0
2017-Jul-22 19:59N 48°31' W 122°36'0 0.0
2017-Jul-22 19:29N 48°31' W 122°36'0 0.0
2017-Jul-22 18:53N 48°31' W 122°36'0 0.0
2017-Jul-22 18:29N 48°31' W 122°36'0 0.0
2017-Jul-22 17:59N 48°31' W 122°36'0 0.0
2017-Jul-22 17:29N 48°31' W 122°36'0 0.0
2017-Jul-22 16:59N 48°31' W 122°36'0 0.0
2017-Jul-22 16:29N 48°31' W 122°36'0 0.0
2017-Jul-22 15:59N 48°31' W 122°36'0 0.0
2017-Jul-22 15:29N 48°31' W 122°36'0 0.0
2017-Jul-22 14:59N 48°31' W 122°36'0 0.0
2017-Jul-22 13:53N 48°31' W 122°36'0 0.0
2017-Jul-22 13:29N 48°31' W 122°36'0 0.0
2017-Jul-22 12:59N 48°31' W 122°36'0 0.0
2017-Jul-22 12:29N 48°31' W 122°36'0 0.0
2017-Jul-22 11:59N 48°31' W 122°36'0 0.0
2017-Jul-22 11:23N 48°31' W 122°36'0 0.0
2017-Jul-22 10:59N 48°31' W 122°36'0 0.0
2017-Jul-22 10:29N 48°31' W 122°36'0 0.0
2017-Jul-22 09:59N 48°31' W 122°36'0 0.0
2017-Jul-22 09:29N 48°31' W 122°36'0 0.0
2017-Jul-22 08:59N 48°31' W 122°36'0 0.0
2017-Jul-22 08:29N 48°31' W 122°36'0 0.0
2017-Jul-22 07:59N 48°31' W 122°36'0 0.0
2017-Jul-22 07:29N 48°31' W 122°36'0 0.0
2017-Jul-22 06:59N 48°31' W 122°36'0 0.0
2017-Jul-22 06:29N 48°31' W 122°36'0 0.0
2017-Jul-22 05:59N 48°31' W 122°36'0 0.0
2017-Jul-22 05:29N 48°31' W 122°36'0 0.0
2017-Jul-22 04:59N 48°31' W 122°36'0 0.0
2017-Jul-22 04:29N 48°31' W 122°36'0 0.0
2017-Jul-22 03:59N 48°31' W 122°36'0 0.0
2017-Jul-22 03:23N 48°31' W 122°36'0 0.0
2017-Jul-22 02:59N 48°31' W 122°36'0 0.0
2017-Jul-22 02:29N 48°31' W 122°36'0 0.0
2017-Jul-22 01:59N 48°31' W 122°36'0 0.0
2017-Jul-22 01:17N 48°31' W 122°36'0 0.0
2017-Jul-22 00:59N 48°31' W 122°36'0 0.0
2017-Jul-22 00:29N 48°31' W 122°36'0 0.0
2017-Jul-21 23:59N 48°31' W 122°36'0 0.0
2017-Jul-21 23:29N 48°31' W 122°36'0 0.0
2017-Jul-21 22:59N 48°31' W 122°36'0 0.0
2017-Jul-21 22:29N 48°31' W 122°36'0 0.0
2017-Jul-21 21:59N 48°31' W 122°36'0 0.0
2017-Jul-21 21:23N 48°31' W 122°36'0 0.0
2017-Jul-21 20:59N 48°31' W 122°36'0 0.1
2017-Jul-21 20:30N 48°31' W 122°36'1 1.5
2017-Jul-21 20:00N 48°31' W 122°36'0 0.7
2017-Jul-21 19:30N 48°31' W 122°36'0 0.5
2017-Jul-21 19:00N 48°31' W 122°36'12 0.3
2017-Jul-20 02:30N 48°34' W 122°54'2 3.1
2017-Jul-20 01:57N 48°33' W 122°55'1 2.1
2017-Jul-20 01:30N 48°33' W 122°56'3 2.0
2017-Jul-20 00:05N 48°32' W 123°01'0 0.0
2017-Jul-19 23:53N 48°32' W 123°01'0 0.0
2017-Jul-19 23:29N 48°32' W 123°01'0 0.0
2017-Jul-19 22:59N 48°32' W 123°01'0 0.0
2017-Jul-19 21:29N 48°32' W 123°01'  
Track history (hours):
 
Tides and Currents Weather Stations Pressure Air Temp Water Temp Dewpoint Dewpoint Depression Visibility Wind Speed Wind Dir Waves Ship Positions

Adventuress (United States)

Ship's website: http://www.soundexp.org/

Owner: SOUND EXPERIENCE, PORT TOWNSEND, WA. More information available from US FCC via Universal Licensing System and Coast Guard Vessel Documentation Center.

Last reported at 2017-Jul-26 01:13 UTC. Time now 2017-Jul-28 06:33 UTC.
Position N 48°34' W 122°59'.

Type: Passenger vessel. MMSI: 367323180.

Date/timePositionNaut miles runAvg speedWind from/ knotsBaromVisibWave heightAir tempDewpointWater temp
2017-Jul-26 01:13N 48°34' W 122°59'1 2.5
2017-Jul-26 01:00N 48°34' W 122°59'1 2.3
2017-Jul-26 00:28N 48°33' W 123°00'0 0.1
2017-Jul-25 21:12N 48°32' W 123°01'0 0.6
2017-Jul-25 20:55N 48°32' W 123°01'0 0.0
2017-Jul-25 20:30N 48°32' W 123°01'1 2.7
2017-Jul-25 20:00N 48°33' W 122°59'  
2017-Jul-22 22:19N 48°32' W 122°34'1 2.2
2017-Jul-22 22:00N 48°31' W 122°34'1 2.7
2017-Jul-22 21:30N 48°31' W 122°36'0 0.7
2017-Jul-22 20:59N 48°31' W 122°36'0 0.0
2017-Jul-22 20:29N 48°31' W 122°36'0 0.0
2017-Jul-22 19:59N 48°31' W 122°36'0 0.0
2017-Jul-22 19:29N 48°31' W 122°36'0 0.0
2017-Jul-22 18:53N 48°31' W 122°36'0 0.0
2017-Jul-22 18:29N 48°31' W 122°36'0 0.0
2017-Jul-22 17:59N 48°31' W 122°36'0 0.0
2017-Jul-22 17:29N 48°31' W 122°36'0 0.0
2017-Jul-22 16:59N 48°31' W 122°36'0 0.0
2017-Jul-22 16:29N 48°31' W 122°36'0 0.0
2017-Jul-22 15:59N 48°31' W 122°36'0 0.0
2017-Jul-22 15:29N 48°31' W 122°36'0 0.0
2017-Jul-22 14:59N 48°31' W 122°36'0 0.0
2017-Jul-22 13:53N 48°31' W 122°36'0 0.0
2017-Jul-22 13:29N 48°31' W 122°36'0 0.0
2017-Jul-22 12:59N 48°31' W 122°36'0 0.0
2017-Jul-22 12:29N 48°31' W 122°36'0 0.0
2017-Jul-22 11:59N 48°31' W 122°36'0 0.0
2017-Jul-22 11:23N 48°31' W 122°36'0 0.0
2017-Jul-22 10:59N 48°31' W 122°36'0 0.0
2017-Jul-22 10:29N 48°31' W 122°36'0 0.0
2017-Jul-22 09:59N 48°31' W 122°36'0 0.0
2017-Jul-22 09:29N 48°31' W 122°36'0 0.0
2017-Jul-22 08:59N 48°31' W 122°36'0 0.0
2017-Jul-22 08:29N 48°31' W 122°36'0 0.0
2017-Jul-22 07:59N 48°31' W 122°36'0 0.0
2017-Jul-22 07:29N 48°31' W 122°36'0 0.0
2017-Jul-22 06:59N 48°31' W 122°36'0 0.0
2017-Jul-22 06:29N 48°31' W 122°36'0 0.0
2017-Jul-22 05:59N 48°31' W 122°36'0 0.0
2017-Jul-22 05:29N 48°31' W 122°36'0 0.0
2017-Jul-22 04:59N 48°31' W 122°36'0 0.0
2017-Jul-22 04:29N 48°31' W 122°36'0 0.0
2017-Jul-22 03:59N 48°31' W 122°36'0 0.0
2017-Jul-22 03:23N 48°31' W 122°36'0 0.0
2017-Jul-22 02:59N 48°31' W 122°36'0 0.0
2017-Jul-22 02:29N 48°31' W 122°36'0 0.0
2017-Jul-22 01:59N 48°31' W 122°36'0 0.0
2017-Jul-22 01:17N 48°31' W 122°36'0 0.0
2017-Jul-22 00:59N 48°31' W 122°36'0 0.0
2017-Jul-22 00:29N 48°31' W 122°36'0 0.0
2017-Jul-21 23:59N 48°31' W 122°36'0 0.0
2017-Jul-21 23:29N 48°31' W 122°36'0 0.0
2017-Jul-21 22:59N 48°31' W 122°36'0 0.0
2017-Jul-21 22:29N 48°31' W 122°36'0 0.0
2017-Jul-21 21:59N 48°31' W 122°36'0 0.0
2017-Jul-21 21:23N 48°31' W 122°36'0 0.0
2017-Jul-21 20:59N 48°31' W 122°36'0 0.1
2017-Jul-21 20:30N 48°31' W 122°36'1 1.5
2017-Jul-21 20:00N 48°31' W 122°36'0 0.7
2017-Jul-21 19:30N 48°31' W 122°36'0 0.5
2017-Jul-21 19:00N 48°31' W 122°36'12 0.3
2017-Jul-20 02:30N 48°34' W 122°54'2 3.1
2017-Jul-20 01:57N 48°33' W 122°55'1 2.1
2017-Jul-20 01:30N 48°33' W 122°56'3 2.0
2017-Jul-20 00:05N 48°32' W 123°01'0 0.0
2017-Jul-19 23:53N 48°32' W 123°01'0 0.0
2017-Jul-19 23:29N 48°32' W 123°01'0 0.0
2017-Jul-19 22:59N 48°32' W 123°01'0 0.0
2017-Jul-19 21:29N 48°32' W 123°01'  

Dump ship's entire track history